SBCJ/CKS METAR and TAF weather

Enter ICAO airport designator
Station Type Date Time Source
SBCJ METAR 2020/09/19 23:00 UTC NOAA

SBCJ 192300Z 00000KT CAVOK 25/21 Q1014


Station Type Date Time Source
SBCJ Decoded METAR 2020/09/19 23:00 UTC NOAA

Carajas / Maraba, Brazil (SBCJ) 06-07S 050-00W
Sep 19, 2020 - 07:00 PM EDT / 2020.09.19 2300 UTC
Wind: Calm:0
Visibility: greater than 7 mile(s):0
Temperature: 77 F (25 C)
Dew Point: 69 F (21 C)
Relative Humidity: 78%
Pressure (altimeter): 29.94 in. Hg (1014 hPa)
ob: SBCJ 192300Z 00000KT CAVOK 25/21 Q1014
cycle: 23

Station Type Date Time Source
SBCJ TAF 2020/09/20 00:00 UTC NOAA

TAF SBCJ 192100Z 2000/2012 00000KT 7000 SCT016 TN22/2010Z TX26/2012Z
RMK PGU

Example: see airport list